Time;durP1;ratioP1;P1;durP2;ratioP2;P2;SDS_P1;SDS_P2;PMS_P1;PMS_P2;Temp;Humidity;BMP_temperature;BMP_pressure;BME280_temperature;BME280_humidity;BME280_pressure;Samples;Min_cycle;Max_cycle;Signal;HPM_P1;HPM_P2
2022/05/05 00:02:38;;;;;;;;;;;15.30;58.40;;;;;;21151092;28;19976;-65
2022/05/05 00:23:00;;;;;;;;;;;15.10;59.30;;;;;;21167602;28;20265;-64
2022/05/05 00:33:02;;;;;;;;;;;15.00;59.60;;;;;;21167428;28;19924;-62
2022/05/05 00:43:04;;;;;;;;;;;14.90;59.50;;;;;;21165387;28;19976;-64
2022/05/05 00:53:05;;;;;;;;;;;14.70;60.20;;;;;;21147707;28;20379;-64
2022/05/05 01:03:08;;;;;;;;;;;14.50;60.70;;;;;;21165066;28;19924;-63
2022/05/05 01:13:10;;;;;;;;;;;14.30;61.20;;;;;;21165431;28;19969;-62
2022/05/05 01:23:14;;;;;;;;;;;14.20;61.30;;;;;;21165123;28;19923;-66
2022/05/05 01:33:20;;;;;;;;;;;14.20;61.40;;;;;;21164084;28;20304;-64
2022/05/05 01:43:42;;;;;;;;;;;14.20;61.50;;;;;;21166651;28;19927;-65
2022/05/05 01:53:50;;;;;;;;;;;14.20;61.30;;;;;;21166107;28;19924;-63
2022/05/05 02:04:01;;;;;;;;;;;14.20;61.20;;;;;;21178933;28;19977;-63
2022/05/05 02:14:13;;;;;;;;;;;15.00;58.30;;;;;;21178897;28;19928;-63
2022/05/05 02:24:21;;;;;;;;;;;;;;;;;;21177657;28;19930;-65
2022/05/05 02:34:25;;;;;;;;;;;;;;;;;;21177006;28;19930;-66
2022/05/05 02:44:46;;;;;;;;;;;;;;;;;;21175810;28;19930;-63
2022/05/05 02:54:55;;;;;;;;;;;;;;;;;;21157405;28;19931;-64
2022/05/05 03:05:13;;;;;;;;;;;14.60;58.10;;;;;;21173383;28;19931;-64
2022/05/05 03:15:18;;;;;;;;;;;13.80;60.20;;;;;;21173076;28;20489;-64
2022/05/05 03:25:27;;;;;;;;;;;13.60;60.80;;;;;;21172793;28;19924;-63
2022/05/05 03:35:32;;;;;;;;;;;13.40;61.20;;;;;;21172313;28;20348;-64
2022/05/05 03:45:53;;;;;;;;;;;13.40;61.50;;;;;;21156369;28;20291;-64
2022/05/05 03:56:14;;;;;;;;;;;13.40;61.40;;;;;;21169891;28;19944;-62
2022/05/05 04:06:29;;;;;;;;;;;13.30;61.70;;;;;;21169119;28;19940;-64
2022/05/05 04:16:36;;;;;;;;;;;13.30;61.70;;;;;;21167424;28;19931;-63
2022/05/05 04:26:44;;;;;;;;;;;13.30;61.60;;;;;;21167629;28;19927;-63
2022/05/05 04:36:50;;;;;;;;;;;13.20;61.60;;;;;;21167503;28;19976;-64
2022/05/05 04:46:53;;;;;;;;;;;13.10;61.40;;;;;;21166878;28;19924;-63
2022/05/05 04:56:55;;;;;;;;;;;13.10;61.50;;;;;;21165355;28;20278;-63
2022/05/05 05:06:59;;;;;;;;;;;12.90;61.50;;;;;;21165498;28;20026;-64
2022/05/05 05:17:01;;;;;;;;;;;12.90;61.50;;;;;;21164289;28;20292;-64
2022/05/05 05:27:04;;;;;;;;;;;12.90;61.50;;;;;;21145726;28;19931;-64
2022/05/05 05:37:07;;;;;;;;;;;12.80;61.30;;;;;;21163399;28;19923;-61
2022/05/05 05:47:12;;;;;;;;;;;12.90;61.20;;;;;;21162325;28;19966;-62
2022/05/05 05:57:14;;;;;;;;;;;13.00;60.80;;;;;;21161985;28;19931;-63
2022/05/05 06:07:17;;;;;;;;;;;13.10;60.30;;;;;;21161622;28;19924;-61
2022/05/05 06:17:19;;;;;;;;;;;13.20;59.90;;;;;;21161239;28;19969;-62
2022/05/05 06:27:21;;;;;;;;;;;13.20;59.30;;;;;;21160436;28;19935;-62
2022/05/05 06:37:24;;;;;;;;;;;13.60;59.00;;;;;;21159800;28;20023;-63
2022/05/05 06:47:26;;;;;;;;;;;14.30;56.80;;;;;;21172853;28;20348;-61
2022/05/05 06:57:28;;;;;;;;;;;14.90;55.20;;;;;;21174468;28;19924;-63
2022/05/05 07:07:30;;;;;;;;;;;15.30;54.50;;;;;;21173173;28;19924;-62
2022/05/05 07:17:31;;;;;;;;;;;15.70;52.90;;;;;;21172299;28;20315;-63
2022/05/05 07:27:33;;;;;;;;;;;16.20;52.20;;;;;;21153859;28;19963;-62
2022/05/05 07:37:36;;;;;;;;;;;16.60;50.50;;;;;;21172254;28;20336;-61
2022/05/05 07:47:38;;;;;;;;;;;17.10;50.00;;;;;;21173104;28;19924;-63
2022/05/05 07:57:44;;;;;;;;;;;17.20;49.30;;;;;;21178794;28;19963;-62
2022/05/05 08:07:48;;;;;;;;;;;17.40;48.80;;;;;;21171954;28;20003;-62
2022/05/05 08:17:49;;;;;;;;;;;17.70;48.40;;;;;;21169737;28;19931;-63
2022/05/05 08:38:13;;;;;;;;;;;18.10;47.70;;;;;;21166433;28;19924;-62
2022/05/05 08:48:16;;;;;;;;;;;18.20;47.10;;;;;;21165362;28;20023;-62
2022/05/05 08:58:18;;;;;;;;;;;18.20;47.20;;;;;;21165621;28;19924;-62
2022/05/05 09:08:23;;;;;;;;;;;18.40;47.10;;;;;;21164159;28;19928;-62
2022/05/05 09:18:29;;;;;;;;;;;18.40;47.00;;;;;;21163991;28;20391;-61
2022/05/05 09:28:32;;;;;;;;;;;18.70;46.80;;;;;;21164000;28;19974;-63
2022/05/05 09:38:54;;;;;;;;;;;18.90;46.40;;;;;;21166521;28;19924;-63
2022/05/05 09:49:11;;;;;;;;;;;19.20;45.70;;;;;;21166906;28;19923;-62
2022/05/05 09:59:14;;;;;;;;;;;19.20;45.40;;;;;;21162509;28;19930;-61
2022/05/05 10:09:16;;;;;;;;;;;19.60;44.70;;;;;;21145364;28;19964;-60
2022/05/05 10:19:19;;;;;;;;;;;19.40;46.30;;;;;;21065236;28;20376;-67
2022/05/05 10:29:33;;;;;;;;;;;19.70;46.30;;;;;;21080393;28;19970;-64
2022/05/05 10:39:47;;;;;;;;;;;19.80;46.70;;;;;;21087227;28;19928;-72
2022/05/05 10:49:48;;;;;;;;;;;19.90;45.90;;;;;;21039390;28;19956;-64
2022/05/05 11:00:08;;;;;;;;;;;20.10;44.10;;;;;;21010786;28;19958;-62
2022/05/05 11:10:28;;;;;;;;;;;20.20;44.30;;;;;;21006266;28;20445;-63
2022/05/05 11:30:50;;;;;;;;;;;20.50;43.60;;;;;;21021904;28;19929;-66
2022/05/05 11:41:02;;;;;;;;;;;20.80;43.60;;;;;;21028829;28;19928;-67
2022/05/05 11:51:06;;;;;;;;;;;20.90;42.90;;;;;;21063623;28;19924;-61
2022/05/05 12:11:30;;;;;;;;;;;21.20;42.30;;;;;;21085068;28;19924;-63
2022/05/05 12:21:32;;;;;;;;;;;21.20;42.20;;;;;;21085267;28;20023;-63
2022/05/05 12:31:33;;;;;;;;;;;21.40;41.90;;;;;;21083396;28;19932;-63
2022/05/05 12:41:34;;;;;;;;;;;21.40;42.60;;;;;;21081926;28;19928;-65
2022/05/05 12:51:39;;;;;;;;;;;21.60;41.50;;;;;;21083557;28;19924;-62
2022/05/05 13:01:44;;;;;;;;;;;22.10;41.10;;;;;;21081257;28;19931;-62
2022/05/05 13:11:47;;;;;;;;;;;22.10;40.60;;;;;;21079992;28;19924;-64
2022/05/05 13:21:48;;;;;;;;;;;21.90;39.90;;;;;;21080149;28;19978;-62
2022/05/05 13:31:50;;;;;;;;;;;21.70;40.00;;;;;;21078507;28;19924;-61
2022/05/05 13:41:51;;;;;;;;;;;22.10;40.30;;;;;;21078814;28;19970;-62
2022/05/05 13:51:52;;;;;;;;;;;22.10;38.00;;;;;;21084147;28;19931;-64
2022/05/05 14:01:53;;;;;;;;;;;22.50;38.30;;;;;;21094880;28;20364;-63
2022/05/05 14:12:10;;;;;;;;;;;22.70;37.20;;;;;;21075998;28;20376;-66
2022/05/05 14:22:12;;;;;;;;;;;22.50;35.60;;;;;;21094568;28;20032;-63
2022/05/05 14:32:13;;;;;;;;;;;22.70;34.90;;;;;;21092481;28;19931;-63
2022/05/05 14:42:15;;;;;;;;;;;22.80;34.70;;;;;;21092751;28;19924;-65
2022/05/05 14:52:18;;;;;;;;;;;22.80;34.00;;;;;;21074313;28;20284;-64
2022/05/05 15:02:19;;;;;;;;;;;22.90;34.00;;;;;;21089844;28;19924;-62
2022/05/05 15:12:21;;;;;;;;;;;22.90;34.50;;;;;;21089750;28;19930;-65
2022/05/05 15:22:22;;;;;;;;;;;23.20;33.40;;;;;;21089437;28;19969;-64
2022/05/05 15:32:25;;;;;;;;;;;24.10;33.30;;;;;;21087628;28;19975;-65
2022/05/05 15:42:27;;;;;;;;;;;23.70;32.70;;;;;;21086603;28;19932;-63
2022/05/05 15:52:28;;;;;;;;;;;23.70;32.30;;;;;;21086140;28;19924;-63
2022/05/05 16:02:30;;;;;;;;;;;23.80;32.50;;;;;;21019137;28;19979;-64
2022/05/05 16:12:32;;;;;;;;;;;23.70;31.70;;;;;;21000384;28;19924;-67
2022/05/05 16:22:34;;;;;;;;;;;23.70;31.30;;;;;;21000884;28;19925;-68
2022/05/05 16:32:36;;;;;;;;;;;23.50;31.60;;;;;;21144043;28;19924;-61
2022/05/05 16:42:39;;;;;;;;;;;23.60;31.70;;;;;;21149192;28;19930;-62
2022/05/05 16:52:42;;;;;;;;;;;23.40;32.20;;;;;;21166756;28;21306;-62
2022/05/05 17:02:44;;;;;;;;;;;23.30;32.20;;;;;;21167641;28;19970;-62
2022/05/05 17:12:46;;;;;;;;;;;23.30;32.40;;;;;;21163591;28;19923;-63
2022/05/05 17:22:48;;;;;;;;;;;23.30;32.40;;;;;;21164339;28;20287;-65
2022/05/05 17:32:53;;;;;;;;;;;23.30;32.50;;;;;;21163726;28;19927;-62
2022/05/05 17:42:55;;;;;;;;;;;23.20;31.90;;;;;;21163146;28;20394;-63
2022/05/05 17:53:03;;;;;;;;;;;23.20;32.30;;;;;;21166029;28;19924;-63
2022/05/05 18:03:05;;;;;;;;;;;23.10;32.60;;;;;;21162873;28;19924;-62
2022/05/05 18:13:06;;;;;;;;;;;23.00;32.80;;;;;;21162429;28;20292;-63
2022/05/05 18:23:09;;;;;;;;;;;22.90;32.60;;;;;;21161489;28;19924;-62
2022/05/05 18:33:11;;;;;;;;;;;22.70;32.30;;;;;;21162841;28;20276;-62
2022/05/05 18:43:13;;;;;;;;;;;22.30;32.00;;;;;;21173358;28;19924;-62
2022/05/05 18:53:15;;;;;;;;;;;22.20;32.50;;;;;;21178845;28;19963;-62
2022/05/05 19:03:18;;;;;;;;;;;21.90;31.80;;;;;;21177144;28;19924;-63
2022/05/05 19:13:20;;;;;;;;;;;21.70;32.60;;;;;;21174968;28;19923;-62
2022/05/05 19:23:22;;;;;;;;;;;21.40;32.90;;;;;;21154222;28;20372;-62
2022/05/05 19:33:23;;;;;;;;;;;21.10;33.30;;;;;;21173032;28;19924;-62
2022/05/05 19:43:25;;;;;;;;;;;20.90;33.00;;;;;;21170852;28;19931;-62
2022/05/05 19:53:26;;;;;;;;;;;20.70;32.70;;;;;;21170379;28;20300;-63
2022/05/05 20:03:28;;;;;;;;;;;20.60;34.00;;;;;;21170430;28;19930;-62
2022/05/05 20:13:34;;;;;;;;;;;20.20;34.40;;;;;;21168777;28;19924;-63
2022/05/05 20:23:37;;;;;;;;;;;20.00;34.60;;;;;;21167976;28;20368;-62
2022/05/05 20:33:39;;;;;;;;;;;19.80;34.70;;;;;;21167470;28;19924;-62
2022/05/05 20:43:40;;;;;;;;;;;19.70;35.10;;;;;;21166125;28;19931;-62
2022/05/05 20:53:42;;;;;;;;;;;19.50;34.60;;;;;;21165416;28;19927;-62
2022/05/05 21:03:43;;;;;;;;;;;19.30;35.40;;;;;;21164552;28;20358;-62
2022/05/05 21:13:45;;;;;;;;;;;19.20;35.30;;;;;;21164102;28;19969;-63
2022/05/05 21:34:08;;;;;;;;;;;18.90;36.20;;;;;;21163509;28;19924;-63
2022/05/05 21:44:09;;;;;;;;;;;18.70;37.10;;;;;;21162777;28;19924;-63
2022/05/05 21:54:13;;;;;;;;;;;18.60;37.90;;;;;;21163611;28;20284;-62
2022/05/05 22:04:17;;;;;;;;;;;18.30;39.40;;;;;;21163406;28;19924;-61
2022/05/05 22:14:19;;;;;;;;;;;17.80;40.60;;;;;;21171189;28;19924;-62
2022/05/05 22:24:21;;;;;;;;;;;17.60;40.90;;;;;;21178436;28;19923;-61
2022/05/05 22:34:23;;;;;;;;;;;17.50;41.40;;;;;;21179168;28;19932;-65
2022/05/05 22:44:25;;;;;;;;;;;17.40;43.20;;;;;;21159799;28;20014;-62
2022/05/05 22:54:26;;;;;;;;;;;17.40;43.40;;;;;;21158892;28;19924;-62
2022/05/05 23:04:28;;;;;;;;;;;17.20;44.50;;;;;;21157663;28;19931;-65
2022/05/05 23:14:29;;;;;;;;;;;16.90;45.10;;;;;;21174859;28;20006;-62
2022/05/05 23:24:31;;;;;;;;;;;16.70;45.40;;;;;;21173885;28;19946;-62
2022/05/05 23:44:54;;;;;;;;;;;16.60;46.20;;;;;;21171393;28;19923;-62
2022/05/05 23:55:21;;;;;;;;;;;16.50;46.20;;;;;;21171777;28;19970;-62
